createdAt,value
2019-02-25T00:01:36.410Z,3.40
2019-02-25T00:04:05.883Z,6.10
2019-02-25T00:06:33.738Z,3.00
2019-02-25T00:09:01.290Z,3.10
2019-02-25T00:11:29.768Z,2.20
2019-02-25T00:13:57.324Z,6.83
2019-02-25T00:16:24.891Z,24.77
2019-02-25T00:18:52.460Z,21.90
2019-02-25T00:21:20.034Z,4.97
2019-02-25T00:23:47.600Z,2.50
2019-02-25T00:26:15.159Z,38.20
2019-02-25T00:28:44.637Z,8.03
2019-02-25T00:31:12.207Z,3.23
2019-02-25T00:33:41.728Z,2.83
2019-02-25T00:36:09.292Z,3.60
2019-02-25T00:38:36.858Z,4.93
2019-02-25T00:41:04.431Z,12.57
2019-02-25T00:43:32.000Z,3.53
2019-02-25T00:46:00.317Z,3.87
2019-02-25T00:48:27.872Z,3.30
2019-02-25T00:50:55.434Z,5.90
2019-02-25T00:53:22.990Z,22.53
2019-02-25T00:55:50.544Z,10.93
2019-02-25T00:58:18.097Z,3.97
2019-02-25T01:00:47.582Z,4.40
2019-02-25T01:03:15.128Z,3.23
2019-02-25T01:05:43.454Z,5.30
2019-02-25T01:08:11.065Z,4.67
2019-02-25T01:10:38.627Z,4.83
2019-02-25T01:13:07.107Z,11.00
2019-02-25T01:15:34.675Z,3.10
2019-02-25T01:18:02.230Z,3.97
2019-02-25T01:20:30.845Z,5.37
2019-02-25T01:22:58.399Z,3.43
2019-02-25T01:25:25.959Z,2.90
2019-02-25T01:27:53.517Z,5.27
2019-02-25T01:30:21.082Z,5.73
2019-02-25T01:32:48.643Z,5.90
2019-02-25T01:35:16.207Z,4.60
2019-02-25T01:37:43.765Z,4.20
2019-02-25T01:40:12.126Z,3.53
2019-02-25T01:42:39.683Z,3.40
2019-02-25T01:45:10.201Z,5.23
2019-02-25T01:47:37.758Z,4.93
2019-02-25T01:50:07.254Z,14.10
2019-02-25T01:52:34.810Z,6.20
2019-02-25T01:55:02.363Z,6.50
2019-02-25T01:57:29.927Z,8.13
2019-02-25T01:59:57.480Z,9.57
2019-02-25T02:02:25.047Z,10.23
2019-02-25T02:04:52.614Z,14.07
2019-02-25T02:07:20.182Z,18.35
2019-02-25T02:09:47.756Z,17.70
2019-02-25T02:12:17.215Z,19.27
2019-02-25T02:14:44.776Z,14.10
2019-02-25T02:17:12.344Z,20.10
2019-02-25T02:19:39.907Z,16.87
2019-02-25T02:22:07.470Z,24.27
2019-02-25T02:24:36.039Z,19.03
2019-02-25T02:27:03.603Z,18.07
2019-02-25T02:29:31.169Z,21.30
2019-02-25T02:31:59.664Z,17.47
2019-02-25T02:34:28.004Z,16.93
2019-02-25T02:36:56.588Z,24.47
2019-02-25T02:39:24.161Z,17.80
2019-02-25T02:42:11.533Z,21.67
2019-02-25T02:44:39.114Z,19.47
2019-02-25T02:47:21.860Z,19.07
2019-02-25T02:49:50.201Z,16.87
2019-02-25T02:52:17.773Z,15.40
2019-02-25T02:54:45.353Z,15.47
2019-02-25T02:57:12.923Z,19.53
2019-02-25T02:59:41.262Z,19.60
2019-02-25T03:02:10.792Z,15.77
2019-02-25T03:04:38.355Z,14.03
2019-02-25T03:07:06.688Z,17.93
2019-02-25T03:09:34.263Z,21.90
2019-02-25T03:12:01.831Z,19.13
2019-02-25T03:14:30.181Z,17.53
2019-02-25T03:16:57.748Z,16.90
2019-02-25T03:19:25.331Z,18.43
2019-02-25T03:21:52.908Z,18.03
2019-02-25T03:24:20.471Z,15.33
2019-02-25T03:26:48.977Z,18.97
2019-02-25T03:29:16.541Z,16.57
2019-02-25T03:31:44.109Z,17.47
2019-02-25T03:34:11.694Z,19.17
2019-02-25T03:36:40.184Z,16.67
2019-02-25T03:39:08.526Z,14.70
2019-02-25T03:41:36.123Z,20.77
2019-02-25T03:44:03.702Z,15.90
2019-02-25T03:46:31.279Z,14.67
2019-02-25T03:48:58.854Z,16.87
2019-02-25T03:51:26.429Z,17.23
2019-02-25T03:53:54.009Z,16.67
2019-02-25T03:56:21.589Z,18.00
2019-02-25T03:58:49.165Z,12.93
2019-02-25T04:01:16.925Z,19.27
2019-02-25T04:03:44.493Z,11.90
2019-02-25T04:06:12.055Z,16.50
2019-02-25T04:08:39.620Z,21.50
2019-02-25T04:11:07.189Z,16.13
2019-02-25T04:13:34.759Z,18.97
2019-02-25T04:16:02.335Z,15.30
2019-02-25T04:18:31.832Z,14.77
2019-02-25T04:21:00.162Z,18.47
2019-02-25T04:23:27.724Z,14.00
2019-02-25T04:25:56.217Z,16.80
2019-02-25T04:28:23.786Z,16.13
2019-02-25T04:30:51.353Z,23.73
2019-02-25T04:33:18.923Z,18.47
2019-02-25T04:35:46.497Z,17.60
2019-02-25T04:38:14.103Z,16.60
2019-02-25T04:40:41.668Z,16.53
2019-02-25T04:43:09.235Z,13.53
2019-02-25T04:45:36.805Z,17.50
2019-02-25T04:48:06.279Z,16.43
2019-02-25T04:50:33.843Z,15.77
2019-02-25T04:53:01.417Z,18.90
2019-02-25T04:55:29.767Z,16.17
2019-02-25T04:57:57.339Z,20.20
2019-02-25T05:00:24.924Z,16.10
2019-02-25T05:02:52.494Z,15.67
2019-02-25T05:05:20.080Z,15.30
2019-02-25T05:07:47.653Z,14.07
2019-02-25T05:10:16.952Z,12.83
2019-02-25T05:12:50.246Z,12.10
2019-02-25T05:15:17.803Z,13.37
2019-02-25T05:17:45.379Z,13.77
2019-02-25T05:20:13.059Z,15.77
2019-02-25T05:22:41.555Z,11.50
2019-02-25T05:25:10.988Z,23.57
2019-02-25T05:27:38.559Z,14.83
2019-02-25T05:30:11.036Z,17.73
2019-02-25T05:32:38.612Z,10.17
2019-02-25T05:35:06.187Z,16.13
2019-02-25T05:37:35.668Z,12.03
2019-02-25T05:40:03.249Z,13.67
2019-02-25T05:42:30.812Z,14.87
2019-02-25T05:44:58.386Z,14.87
2019-02-25T05:47:26.884Z,11.47
2019-02-25T05:49:54.447Z,13.67
2019-02-25T05:52:22.016Z,13.10
2019-02-25T05:54:49.593Z,9.47
2019-02-25T05:57:17.155Z,8.70
2019-02-25T05:59:44.725Z,13.20
2019-02-25T06:02:12.287Z,11.63
2019-02-25T06:04:40.621Z,17.47
2019-02-25T06:07:10.408Z,12.80
2019-02-25T06:09:35.810Z,14.00
2019-02-25T06:12:03.374Z,12.40
2019-02-25T06:14:30.937Z,12.20
2019-02-25T06:16:59.492Z,10.93
2019-02-25T06:19:27.056Z,25.73
2019-02-25T06:21:54.621Z,24.47
2019-02-25T06:24:22.180Z,20.40
2019-02-25T06:26:49.745Z,12.40
2019-02-25T06:29:18.228Z,17.00
2019-02-25T06:31:45.801Z,15.43
2019-02-25T06:34:13.375Z,15.90
2019-02-25T06:36:40.939Z,13.03
2019-02-25T06:39:10.446Z,14.77
2019-02-25T06:41:38.020Z,16.47
2019-02-25T06:44:05.713Z,14.50
2019-02-25T06:46:33.292Z,17.00
2019-02-25T06:49:00.864Z,24.60
2019-02-25T06:51:29.359Z,23.73
2019-02-25T06:53:59.640Z,19.60
2019-02-25T06:56:27.213Z,23.20
2019-02-25T06:58:56.719Z,25.27
2019-02-25T07:01:24.286Z,16.57
2019-02-25T07:03:57.537Z,19.10
2019-02-25T07:06:25.607Z,22.37
2019-02-25T07:09:00.844Z,17.83
2019-02-25T07:11:34.221Z,20.87
2019-02-25T07:14:02.404Z,17.80
2019-02-25T07:16:34.431Z,22.97
2019-02-25T07:19:02.863Z,16.90
2019-02-25T07:21:35.977Z,18.90
2019-02-25T07:24:07.962Z,22.77
2019-02-25T07:26:41.204Z,19.67
2019-02-25T07:29:14.453Z,23.70
2019-02-25T07:31:46.916Z,22.90
2019-02-25T07:34:20.179Z,20.67
2019-02-25T07:36:50.399Z,29.27
2019-02-25T07:39:28.821Z,17.53
2019-02-25T07:42:00.932Z,21.63
2019-02-25T07:47:25.549Z,21.67
2019-02-25T07:49:57.913Z,30.13
2019-02-25T07:52:29.157Z,23.43
2019-02-25T07:54:57.347Z,19.93
2019-02-25T07:57:35.795Z,16.27
2019-02-25T08:00:18.255Z,23.33
2019-02-25T08:02:48.581Z,17.30
2019-02-25T08:05:18.592Z,34.67
2019-02-25T08:08:03.244Z,35.80
2019-02-25T08:10:37.457Z,25.10
2019-02-25T08:13:05.036Z,21.93
2019-02-25T08:18:27.596Z,19.67
2019-02-25T08:20:55.176Z,16.93
2019-02-25T08:23:22.739Z,25.43
2019-02-25T08:26:01.919Z,20.10
2019-02-25T08:28:29.581Z,18.67
2019-02-25T08:30:58.896Z,20.70
2019-02-25T08:33:32.012Z,14.30
2019-02-25T08:39:07.391Z,16.95
2019-02-25T08:41:35.435Z,18.17
2019-02-25T08:44:08.631Z,15.80
2019-02-25T08:46:46.891Z,17.30
2019-02-25T08:49:19.078Z,17.60
2019-02-25T08:51:46.652Z,24.50
2019-02-25T08:54:16.920Z,25.23
2019-02-25T08:56:44.488Z,15.37
2019-02-25T08:59:12.058Z,15.80
2019-02-25T09:01:40.565Z,16.80
2019-02-25T09:04:08.137Z,17.37
2019-02-25T09:06:35.702Z,17.53
2019-02-25T09:09:04.042Z,20.50
2019-02-25T09:11:31.616Z,28.37
2019-02-25T09:13:59.187Z,17.77
2019-02-25T09:16:26.771Z,16.53
2019-02-25T09:18:54.341Z,17.67
2019-02-25T09:21:21.912Z,20.50
2019-02-25T09:23:49.494Z,22.23
2019-02-25T09:26:17.069Z,16.67
2019-02-25T09:28:45.612Z,16.93
2019-02-25T09:31:13.177Z,15.47
2019-02-25T09:33:40.743Z,14.27
2019-02-25T09:36:08.308Z,19.10
2019-02-25T09:38:35.869Z,18.50
2019-02-25T09:41:03.445Z,21.40
2019-02-25T09:43:31.784Z,18.20
2019-02-25T09:45:59.355Z,17.33
2019-02-25T09:48:26.924Z,16.67
2019-02-25T09:50:54.489Z,20.07
2019-02-25T09:53:22.066Z,20.73
2019-02-25T09:55:49.640Z,17.00
2019-02-25T09:58:17.204Z,17.50
2019-02-25T10:00:46.199Z,22.00
2019-02-25T10:03:12.391Z,19.83
2019-02-25T10:05:40.724Z,19.43
2019-02-25T10:08:08.291Z,24.40
2019-02-25T10:10:35.869Z,17.07
2019-02-25T10:13:03.441Z,25.67
2019-02-25T10:15:31.781Z,18.67
2019-02-25T10:17:59.351Z,29.23
2019-02-25T10:20:27.859Z,21.73
2019-02-25T10:22:55.423Z,20.67
2019-02-25T10:25:23.018Z,31.10
2019-02-25T10:27:51.499Z,24.53
2019-02-25T10:30:19.073Z,19.40
2019-02-25T10:32:46.641Z,18.20
2019-02-25T10:35:16.039Z,26.20
2019-02-25T10:37:45.543Z,17.90
2019-02-25T10:40:13.673Z,19.90
2019-02-25T10:42:40.744Z,20.50
2019-02-25T10:45:13.519Z,27.43
2019-02-25T10:47:41.685Z,26.80
2019-02-25T10:50:08.444Z,22.80
2019-02-25T10:52:36.013Z,17.60
2019-02-25T10:55:03.579Z,25.53
2019-02-25T10:57:31.487Z,37.33
2019-02-25T10:59:58.762Z,28.30
2019-02-25T11:02:26.336Z,23.50
2019-02-25T11:04:55.529Z,25.60
2019-02-25T11:07:21.523Z,14.40
2019-02-25T11:09:50.396Z,18.57
2019-02-25T11:12:17.483Z,19.93
2019-02-25T11:14:46.976Z,19.30
2019-02-25T11:17:16.130Z,22.03
2019-02-25T11:19:43.101Z,15.43
2019-02-25T11:22:12.079Z,19.60
2019-02-25T11:24:38.304Z,24.83
2019-02-25T11:27:07.351Z,18.90
2019-02-25T11:29:33.487Z,35.80
2019-02-25T11:32:01.090Z,18.47
2019-02-25T11:34:29.467Z,17.30
2019-02-25T11:36:59.388Z,15.00
2019-02-25T11:39:25.724Z,17.00
2019-02-25T11:41:53.275Z,20.33
2019-02-25T11:44:22.993Z,18.20
2019-02-25T11:46:48.469Z,19.60
2019-02-25T11:49:17.265Z,19.23
2019-02-25T11:51:45.831Z,15.83
2019-02-25T11:54:13.400Z,17.30
2019-02-25T11:56:40.983Z,16.60
2019-02-25T11:59:10.463Z,15.50
2019-02-25T12:01:38.043Z,22.53
2019-02-25T12:04:05.635Z,14.57
2019-02-25T12:06:33.980Z,14.20
2019-02-25T12:09:01.547Z,19.33
2019-02-25T12:11:29.111Z,18.53
2019-02-25T12:13:56.687Z,22.37
2019-02-25T12:16:25.015Z,24.77
2019-02-25T12:18:52.575Z,15.57
2019-02-25T12:21:20.143Z,14.97
2019-02-25T12:23:47.708Z,14.80
2019-02-25T12:26:15.284Z,23.40
2019-02-25T12:28:42.860Z,26.00
2019-02-25T12:31:10.434Z,11.50
2019-02-25T12:33:37.997Z,18.53
2019-02-25T12:36:06.571Z,21.97
2019-02-25T12:38:34.132Z,14.53
2019-02-25T12:41:01.703Z,17.37
2019-02-25T12:43:29.274Z,17.60
2019-02-25T12:45:57.022Z,21.80
2019-02-25T12:48:24.602Z,13.83
2019-02-25T12:50:54.079Z,20.13
2019-02-25T12:53:21.647Z,44.23
2019-02-25T12:55:49.820Z,24.40
2019-02-25T12:58:17.393Z,21.60
2019-02-25T13:00:44.972Z,14.80
2019-02-25T13:03:12.545Z,17.10
2019-02-25T13:05:40.297Z,18.10
2019-02-25T13:08:08.648Z,15.60
2019-02-25T13:10:36.228Z,33.40
2019-02-25T13:13:05.724Z,33.33
2019-02-25T13:15:33.292Z,23.00
2019-02-25T13:18:02.785Z,14.97
2019-02-25T13:20:31.140Z,14.07
2019-02-25T13:22:58.703Z,24.07
2019-02-25T13:25:26.280Z,28.30
2019-02-25T13:27:54.357Z,22.20
2019-02-25T13:30:21.461Z,20.23
2019-02-25T13:32:49.056Z,24.77
2019-02-25T13:35:17.416Z,21.77
2019-02-25T13:37:45.827Z,23.53
2019-02-25T13:40:16.347Z,27.00
2019-02-25T13:42:43.941Z,30.93
2019-02-25T13:45:14.347Z,24.90
2019-02-25T13:47:41.964Z,23.83
2019-02-25T13:50:09.893Z,24.83
2019-02-25T13:52:47.266Z,24.90
2019-02-25T13:55:05.099Z,18.87
2019-02-25T13:57:32.692Z,22.30
2019-02-25T14:00:00.309Z,17.97
2019-02-25T14:02:27.916Z,33.70
2019-02-25T14:04:55.538Z,27.27
2019-02-25T14:07:23.129Z,17.43
2019-02-25T14:09:50.744Z,20.33
2019-02-25T14:12:18.433Z,23.77
2019-02-25T14:14:47.959Z,26.80
2019-02-25T14:17:15.565Z,24.73
2019-02-25T14:19:43.249Z,28.23
2019-02-25T14:22:11.648Z,24.90
2019-02-25T14:24:40.438Z,37.13
2019-02-25T14:27:06.855Z,29.10
2019-02-25T14:29:34.438Z,33.47
2019-02-25T14:32:02.044Z,22.20
2019-02-25T14:34:29.660Z,29.33
2019-02-25T14:36:57.800Z,20.93
2019-02-25T14:39:27.750Z,23.77
2019-02-25T14:41:54.940Z,33.00
2019-02-25T14:44:22.027Z,19.97
2019-02-25T14:46:49.624Z,24.60
2019-02-25T14:49:17.315Z,34.23
2019-02-25T14:51:44.905Z,23.02
2019-02-25T14:54:12.524Z,32.27
2019-02-25T14:56:40.117Z,30.67
2019-02-25T14:59:12.523Z,26.43
2019-02-25T15:01:36.087Z,23.30
2019-02-25T15:04:04.340Z,26.70
2019-02-25T15:06:32.655Z,23.40
2019-02-25T15:08:59.595Z,25.10
2019-02-25T15:11:26.560Z,29.93
2019-02-25T15:13:55.162Z,28.40
2019-02-25T15:16:22.748Z,33.30
2019-02-25T15:18:50.344Z,28.90
2019-02-25T15:21:17.935Z,24.60
2019-02-25T15:23:45.527Z,21.23
2019-02-25T15:26:14.995Z,22.77
2019-02-25T15:28:42.643Z,25.53
2019-02-25T15:31:12.022Z,25.40
2019-02-25T15:33:38.723Z,28.90
2019-02-25T15:36:05.501Z,20.00
2019-02-25T15:38:34.784Z,16.43
2019-02-25T15:41:02.163Z,21.20
2019-02-25T15:43:29.985Z,20.90
2019-02-25T15:45:57.165Z,16.50
2019-02-25T15:48:24.760Z,35.23
2019-02-25T15:50:52.966Z,29.27
2019-02-25T15:53:21.887Z,17.90
2019-02-25T15:55:49.490Z,23.80
2019-02-25T15:58:17.104Z,27.50
2019-02-25T16:00:44.696Z,16.03
2019-02-25T16:03:15.919Z,21.50
2019-02-25T16:05:41.807Z,21.10
2019-02-25T16:08:09.432Z,25.53
2019-02-25T16:10:37.789Z,20.33
2019-02-25T16:13:09.409Z,30.33
2019-02-25T16:15:33.037Z,28.67
2019-02-25T16:18:02.362Z,22.97
2019-02-25T16:20:32.243Z,24.53
2019-02-25T16:22:56.581Z,19.63
2019-02-25T16:25:25.057Z,25.50
2019-02-25T16:27:52.192Z,19.00
2019-02-25T16:30:19.762Z,19.40
2019-02-25T16:32:48.325Z,19.80
2019-02-25T16:35:14.241Z,26.57
2019-02-25T16:37:42.700Z,22.07
2019-02-25T16:40:12.141Z,18.00
2019-02-25T16:42:41.297Z,18.93
2019-02-25T16:45:09.616Z,21.67
2019-02-25T16:47:37.768Z,24.45
2019-02-25T16:50:03.597Z,22.17
2019-02-25T16:52:31.217Z,31.60
2019-02-25T16:54:58.835Z,25.10
2019-02-25T16:57:26.439Z,22.50
2019-02-25T16:59:55.869Z,26.57
2019-02-25T17:02:21.681Z,35.70
2019-02-25T17:04:51.210Z,19.63
2019-02-25T17:07:20.448Z,25.43
2019-02-25T17:09:46.492Z,21.17
2019-02-25T17:12:14.083Z,20.50
2019-02-25T17:14:41.711Z,21.33
2019-02-25T17:17:09.300Z,22.60
2019-02-25T17:19:38.488Z,25.13
2019-02-25T17:22:04.730Z,19.87
2019-02-25T17:24:32.532Z,36.73
2019-02-25T17:27:00.024Z,33.30
2019-02-25T17:29:28.887Z,27.90
2019-02-25T17:31:57.421Z,28.60
2019-02-25T17:34:23.509Z,23.00
2019-02-25T17:36:52.781Z,23.07
2019-02-25T17:39:18.706Z,14.80
2019-02-25T17:41:46.325Z,14.50
2019-02-25T17:44:13.929Z,27.93
2019-02-25T17:46:43.021Z,23.53
2019-02-25T17:49:12.308Z,20.70
2019-02-25T17:51:38.759Z,27.27
2019-02-25T17:54:07.590Z,22.03
2019-02-25T17:56:33.981Z,20.83
2019-02-25T17:59:03.785Z,22.43
2019-02-25T18:01:30.763Z,27.33
2019-02-25T18:04:02.032Z,26.20
2019-02-25T18:06:29.747Z,20.37
2019-02-25T18:08:55.945Z,24.97
2019-02-25T18:11:24.596Z,18.27
2019-02-25T18:13:53.019Z,34.40
2019-02-25T18:16:19.137Z,25.27
2019-02-25T18:18:47.842Z,41.63
2019-02-25T18:21:14.343Z,28.77
2019-02-25T18:23:41.940Z,27.00
2019-02-25T18:26:12.453Z,34.73
2019-02-25T18:28:39.668Z,31.10
2019-02-25T18:31:09.067Z,32.60
2019-02-25T18:33:33.592Z,29.50
2019-02-25T18:36:04.229Z,23.20
2019-02-25T18:38:31.698Z,27.67
2019-02-25T18:41:00.071Z,22.40
2019-02-25T18:43:28.288Z,23.47
2019-02-25T18:45:56.235Z,38.13
2019-02-25T18:48:25.786Z,33.50
2019-02-25T18:50:56.553Z,22.37
2019-02-25T18:53:20.632Z,17.43
2019-02-25T18:55:50.188Z,27.43
2019-02-25T18:58:16.650Z,35.97
2019-02-25T19:00:45.373Z,27.25
2019-02-25T19:03:11.876Z,32.40
2019-02-25T19:05:39.455Z,24.47
2019-02-25T19:08:07.048Z,21.63
2019-02-25T19:10:35.567Z,26.37
2019-02-25T19:13:03.181Z,26.23
2019-02-25T19:15:31.079Z,19.17
2019-02-25T19:17:59.712Z,26.63
2019-02-25T19:20:27.949Z,29.67
2019-02-25T19:23:00.454Z,21.03
2019-02-25T19:25:25.882Z,21.47
2019-02-25T19:27:54.380Z,19.67
2019-02-25T19:30:24.454Z,34.33
2019-02-25T19:32:51.142Z,22.03
2019-02-25T19:35:21.864Z,21.30
2019-02-25T19:37:49.427Z,20.40
2019-02-25T19:40:20.010Z,21.00
2019-02-25T19:42:50.523Z,23.60
2019-02-25T19:45:16.909Z,28.50
2019-02-25T19:47:45.244Z,18.20
2019-02-25T19:50:16.648Z,24.00
2019-02-25T19:52:46.646Z,18.50
2019-02-25T19:55:15.256Z,17.70
2019-02-25T19:57:42.411Z,16.97
2019-02-25T20:00:12.300Z,19.97
2019-02-25T20:02:39.883Z,13.07
2019-02-25T20:05:11.710Z,13.60
2019-02-25T20:07:37.024Z,10.37
2019-02-25T20:10:05.543Z,13.83
2019-02-25T20:12:35.171Z,13.30
2019-02-25T20:15:00.813Z,11.13
2019-02-25T20:17:30.465Z,10.97
2019-02-25T20:19:56.771Z,11.83
2019-02-25T20:22:24.332Z,13.47
2019-02-25T20:24:53.312Z,8.90
2019-02-25T20:27:19.507Z,10.30
2019-02-25T20:29:47.946Z,9.50
2019-02-25T20:32:18.521Z,16.40
2019-02-25T20:34:45.930Z,7.73
2019-02-25T20:37:11.920Z,7.40
2019-02-25T20:39:42.991Z,14.50
2019-02-25T20:42:09.033Z,16.73
2019-02-25T20:44:36.764Z,16.23
2019-02-25T20:47:04.536Z,8.40
2019-02-25T20:49:33.187Z,12.40
2019-02-25T20:52:01.272Z,11.40
2019-02-25T20:54:28.767Z,14.20
2019-02-25T20:56:56.380Z,10.43
2019-02-25T20:59:25.637Z,10.27
2019-02-25T21:01:52.736Z,11.40
2019-02-25T21:04:22.280Z,10.00
2019-02-25T21:06:49.683Z,8.27
2019-02-25T21:09:18.168Z,8.73
2019-02-25T21:11:45.736Z,13.27
2019-02-25T21:14:13.291Z,10.23
2019-02-25T21:16:41.616Z,7.50
2019-02-25T21:19:10.822Z,10.00
2019-02-25T21:21:38.475Z,8.43
2019-02-25T21:24:06.245Z,11.43
2019-02-25T21:26:33.759Z,10.47
2019-02-25T21:29:00.225Z,13.20
2019-02-25T21:31:27.235Z,6.17
2019-02-25T21:33:56.454Z,9.80
2019-02-25T21:36:22.602Z,9.60
2019-02-25T21:38:51.604Z,9.10
2019-02-25T21:41:17.788Z,8.30
2019-02-25T21:43:45.623Z,11.30
2019-02-25T21:46:17.778Z,8.20
2019-02-25T21:48:40.564Z,10.93
2019-02-25T21:51:10.090Z,15.13
2019-02-25T21:53:36.703Z,8.97
2019-02-25T21:56:04.891Z,8.13
2019-02-25T21:58:31.871Z,10.17
2019-02-25T22:00:59.429Z,9.90
2019-02-25T22:03:26.984Z,6.87
2019-02-25T22:05:56.152Z,7.17
2019-02-25T22:08:24.454Z,17.53
2019-02-25T22:10:49.891Z,8.40
2019-02-25T22:13:18.341Z,9.23
2019-02-25T22:15:45.312Z,12.17
2019-02-25T22:18:14.118Z,6.90
2019-02-25T22:20:42.203Z,7.33
2019-02-25T22:23:08.100Z,9.03
2019-02-25T22:25:35.519Z,9.07
2019-02-25T22:28:03.742Z,9.57
2019-02-25T22:30:30.687Z,14.40
2019-02-25T22:33:00.079Z,7.77
2019-02-25T22:35:25.855Z,9.97
2019-02-25T22:37:55.507Z,8.10
2019-02-25T22:40:21.807Z,15.47
2019-02-25T22:42:50.434Z,4.80
2019-02-25T22:45:18.806Z,9.93
2019-02-25T22:47:45.375Z,5.07
2019-02-25T22:50:15.280Z,10.10
2019-02-25T22:52:41.328Z,10.83
2019-02-25T22:55:10.027Z,8.20
2019-02-25T22:57:37.250Z,6.60
2019-02-25T23:00:19.776Z,4.63
2019-02-25T23:02:45.212Z,5.47
2019-02-25T23:05:15.213Z,8.50
2019-02-25T23:07:43.192Z,13.07
2019-02-25T23:10:10.618Z,8.20
2019-02-25T23:12:36.535Z,8.03
2019-02-25T23:15:06.105Z,13.13
2019-02-25T23:17:35.109Z,7.47
2019-02-25T23:20:00.172Z,7.63
2019-02-25T23:22:28.152Z,14.77
2019-02-25T23:24:54.562Z,7.07
2019-02-25T23:27:22.124Z,9.97
2019-02-25T23:29:49.685Z,5.30
2019-02-25T23:32:17.449Z,8.23
2019-02-25T23:34:47.042Z,4.53
2019-02-25T23:37:14.766Z,10.30
2019-02-25T23:39:40.522Z,5.93
2019-02-25T23:42:09.145Z,6.33
2019-02-25T23:44:36.207Z,8.50
2019-02-25T23:47:04.403Z,6.40
2019-02-25T23:49:31.375Z,7.70
2019-02-25T23:51:58.935Z,9.10
2019-02-25T23:54:28.062Z,7.67
2019-02-25T23:56:57.082Z,11.67
2019-02-25T23:59:26.562Z,6.53
